Benton, TN (37307)

9:47 AM EDT on September 01, 2015 (GMT -0400)
RAWS | | Change Station
CLOSE
Current Station
Personal Weather Station
Location: Benton, TN
Elevation: 1321 ft
Nearby Weather Stations

Elev 1321 ft 35.16 °N, 84.59 °W | Updated 42 minutes ago

Clear
Clear
72.0 °F
Feels Like 67 °F
N
0.0
Wind Variable Wind from North
Gusts 2.0 mph

Today
High -- | Low -- °F
--% Chance of Precip.
Yesterday
High -- | Low -- °F
Precip. -- in
7:10 AM 8:05 PM
Waning Gibbous, 89% visible
Pressure 30.18 in
Visibility 10.0 miles
Clouds Clear
Heat Index 67 °F
Dew Point 71.0 °F
Humidity 96%
Rainfall in
Snow Depth Not available.
UV 3 out of 12
Pollen 8.90 out of 12
Air Quality Not available.
Flu Activity Not available.
METAR KMMI 011335Z AUTO 00000KT 10SM CLR 22/19 A3018 RMK
Pressure 30.18 in
Visibility 10.0 miles
Clouds Clear
Heat Index 67 °F
Dew Point 71.0 °F
Humidity 96%
Rainfall in
Snow Depth Not available.
UV 3 out of 12
Pollen 8.90 out of 12
Air Quality Not available.
Flu Activity Not available.
METAR KMMI 011335Z AUTO 00000KT 10SM CLR 22/19 A3018 RMK

10-Day Weather Forecast

×

Almanac

Astronomy

Sep. 01, 2015 Rise Set
Actual Time
Civil Twilight
Nautical Twilight
Astronomical Twilight
Moon
Length of Visible Light
Length of Day
Tomorrow will be .
, % of the Moon is Illuminated

Today's Extremes

State Highs State Lows

Community

WunderPhotos

Upload Photos

1,851,511 photos uploaded!

WunderBlogs® & News

Nearby

Air Quality

  Air Quality AQ Index Pollutant
Not available.

Snow Depth

Station Depth Elevation

Earthquake Activity

City Distance Mag. Time & Date
Minimum magnitude displayed is 2.5.

Coastal Water Temperatures

Place Temperature

Stations

Nearby Weather Stations

Station Location Temp. Windchill Dew Point Humidity Wind Precip. Elev Updated Type